Terminal Aerodrome Forecast
Issued by NWS

Home | Current Version | Previous Version | Graphics & Text | Print | Product List | Glossary On
Versions: 1 2 3 4 5 6 7 8 9 10 11 12 13 14 15 16 17 18 19
000
FTUS43 KTOP 261341 AAA
TAFMHK
TAF AMD
KMHK 261341Z 2614/2712 04006KT 6SM -RA BR SCT006 BKN020
      TEMPO 2614/2616 5SM -RA BKN006
     FM261900 15007KT P6SM BKN035
     FM270200 12005KT P6SM VCTS OVC020CB=

USA.gov is the U.S. government's official web portal to all federal, state and local government web resources and services.